sensor_id;sensor_type;location;lat;lon;timestamp;temperature;humidity
65995;HTU21D;52764;51.036;5.852;2023-10-19T00:01:16;13.93;89.02
65995;HTU21D;52764;51.036;5.852;2023-10-19T00:03:42;13.94;89.02
65995;HTU21D;52764;51.036;5.852;2023-10-19T00:06:11;13.98;89.06
65995;HTU21D;52764;51.036;5.852;2023-10-19T00:08:39;14.05;89.09
65995;HTU21D;52764;51.036;5.852;2023-10-19T00:11:09;14.10;88.96
65995;HTU21D;52764;51.036;5.852;2023-10-19T00:13:39;14.20;88.95
65995;HTU21D;52764;51.036;5.852;2023-10-19T00:16:09;14.28;88.89
65995;HTU21D;52764;51.036;5.852;2023-10-19T00:18:42;14.37;88.18
65995;HTU21D;52764;51.036;5.852;2023-10-19T00:21:09;14.45;88.97
65995;HTU21D;52764;51.036;5.852;2023-10-19T00:23:37;14.50;88.91
65995;HTU21D;52764;51.036;5.852;2023-10-19T00:26:05;14.54;88.90
65995;HTU21D;52764;51.036;5.852;2023-10-19T00:28:37;14.62;89.01
65995;HTU21D;52764;51.036;5.852;2023-10-19T00:31:04;14.70;89.12
65995;HTU21D;52764;51.036;5.852;2023-10-19T00:33:34;14.80;89.30
65995;HTU21D;52764;51.036;5.852;2023-10-19T00:36:07;14.93;89.21
65995;HTU21D;52764;51.036;5.852;2023-10-19T00:38:34;15.04;89.27
65995;HTU21D;52764;51.036;5.852;2023-10-19T00:41:01;15.18;89.28
65995;HTU21D;52764;51.036;5.852;2023-10-19T00:43:48;15.32;89.38
65995;HTU21D;52764;51.036;5.852;2023-10-19T00:46:23;15.45;89.26
65995;HTU21D;52764;51.036;5.852;2023-10-19T00:49:00;15.57;89.20
65995;HTU21D;52764;51.036;5.852;2023-10-19T00:51:31;15.66;89.30
65995;HTU21D;52764;51.036;5.852;2023-10-19T00:54:15;15.78;89.11
65995;HTU21D;52764;51.036;5.852;2023-10-19T00:56:47;15.86;89.07
65995;HTU21D;52764;51.036;5.852;2023-10-19T00:59:19;15.91;88.89
65995;HTU21D;52764;51.036;5.852;2023-10-19T01:01:51;15.97;88.78
65995;HTU21D;52764;51.036;5.852;2023-10-19T01:04:22;15.99;88.76
65995;HTU21D;52764;51.036;5.852;2023-10-19T01:06:56;16.04;88.64
65995;HTU21D;52764;51.036;5.852;2023-10-19T01:09:37;16.15;88.05
65995;HTU21D;52764;51.036;5.852;2023-10-19T01:12:05;16.12;88.17
65995;HTU21D;52764;51.036;5.852;2023-10-19T01:17:37;16.17;87.78
65995;HTU21D;52764;51.036;5.852;2023-10-19T01:20:10;16.19;87.75
65995;HTU21D;52764;51.036;5.852;2023-10-19T01:23:07;16.18;87.65
65995;HTU21D;52764;51.036;5.852;2023-10-19T01:25:53;16.20;87.51
65995;HTU21D;52764;51.036;5.852;2023-10-19T01:28:39;16.24;87.40
65995;HTU21D;52764;51.036;5.852;2023-10-19T01:31:11;16.24;87.38
65995;HTU21D;52764;51.036;5.852;2023-10-19T01:33:42;16.29;87.14
65995;HTU21D;52764;51.036;5.852;2023-10-19T01:36:08;16.32;86.93
65995;HTU21D;52764;51.036;5.852;2023-10-19T01:38:40;16.35;86.62
65995;HTU21D;52764;51.036;5.852;2023-10-19T01:41:08;16.36;86.44
65995;HTU21D;52764;51.036;5.852;2023-10-19T01:44:00;16.37;86.32
65995;HTU21D;52764;51.036;5.852;2023-10-19T01:46:34;16.42;85.99
65995;HTU21D;52764;51.036;5.852;2023-10-19T01:49:02;16.41;85.95
65995;HTU21D;52764;51.036;5.852;2023-10-19T01:51:31;16.41;85.99
65995;HTU21D;52764;51.036;5.852;2023-10-19T01:54:09;16.40;85.87
65995;HTU21D;52764;51.036;5.852;2023-10-19T01:56:35;16.42;85.79
65995;HTU21D;52764;51.036;5.852;2023-10-19T01:59:04;16.43;85.58
65995;HTU21D;52764;51.036;5.852;2023-10-19T02:01:35;16.45;85.49
65995;HTU21D;52764;51.036;5.852;2023-10-19T02:04:06;16.46;85.32
65995;HTU21D;52764;51.036;5.852;2023-10-19T02:06:35;16.48;85.29
65995;HTU21D;52764;51.036;5.852;2023-10-19T02:09:10;16.54;85.05
65995;HTU21D;52764;51.036;5.852;2023-10-19T02:11:44;16.54;84.60
65995;HTU21D;52764;51.036;5.852;2023-10-19T02:14:14;16.62;84.45
65995;HTU21D;52764;51.036;5.852;2023-10-19T02:16:46;16.64;84.74
65995;HTU21D;52764;51.036;5.852;2023-10-19T02:19:32;16.67;84.00
65995;HTU21D;52764;51.036;5.852;2023-10-19T02:22:01;16.66;83.89
65995;HTU21D;52764;51.036;5.852;2023-10-19T02:24:33;16.71;83.76
65995;HTU21D;52764;51.036;5.852;2023-10-19T02:26:59;16.72;83.48
65995;HTU21D;52764;51.036;5.852;2023-10-19T02:29:28;16.71;83.44
65995;HTU21D;52764;51.036;5.852;2023-10-19T02:31:55;16.74;83.38
65995;HTU21D;52764;51.036;5.852;2023-10-19T02:34:21;16.74;83.26
65995;HTU21D;52764;51.036;5.852;2023-10-19T02:36:48;16.77;83.20
65995;HTU21D;52764;51.036;5.852;2023-10-19T02:39:15;16.78;83.13
65995;HTU21D;52764;51.036;5.852;2023-10-19T02:41:44;16.75;83.16
65995;HTU21D;52764;51.036;5.852;2023-10-19T02:44:17;16.73;83.07
65995;HTU21D;52764;51.036;5.852;2023-10-19T02:46:44;16.70;83.25
65995;HTU21D;52764;51.036;5.852;2023-10-19T02:49:12;16.71;83.29
65995;HTU21D;52764;51.036;5.852;2023-10-19T02:51:50;16.73;83.26
65995;HTU21D;52764;51.036;5.852;2023-10-19T02:54:19;16.75;83.05
65995;HTU21D;52764;51.036;5.852;2023-10-19T02:56:45;16.79;82.94
65995;HTU21D;52764;51.036;5.852;2023-10-19T02:59:21;16.80;82.85
65995;HTU21D;52764;51.036;5.852;2023-10-19T03:01:58;16.79;77.81
65995;HTU21D;52764;51.036;5.852;2023-10-19T03:04:43;16.73;82.91
65995;HTU21D;52764;51.036;5.852;2023-10-19T03:07:10;16.66;83.16
65995;HTU21D;52764;51.036;5.852;2023-10-19T03:09:39;16.74;82.94
65995;HTU21D;52764;51.036;5.852;2023-10-19T03:12:05;16.74;83.02
65995;HTU21D;52764;51.036;5.852;2023-10-19T03:14:35;16.76;82.97
65995;HTU21D;52764;51.036;5.852;2023-10-19T03:17:02;16.79;82.97
65995;HTU21D;52764;51.036;5.852;2023-10-19T03:19:29;16.80;82.79
65995;HTU21D;52764;51.036;5.852;2023-10-19T03:21:55;16.80;82.78
65995;HTU21D;52764;51.036;5.852;2023-10-19T03:24:21;16.80;82.72
65995;HTU21D;52764;51.036;5.852;2023-10-19T03:27:03;16.80;82.49
65995;HTU21D;52764;51.036;5.852;2023-10-19T03:29:39;16.81;82.55
65995;HTU21D;52764;51.036;5.852;2023-10-19T03:32:05;16.82;82.36
65995;HTU21D;52764;51.036;5.852;2023-10-19T03:34:35;16.85;82.36
65995;HTU21D;52764;51.036;5.852;2023-10-19T03:37:01;16.86;82.38
65995;HTU21D;52764;51.036;5.852;2023-10-19T03:39:38;16.88;82.24
65995;HTU21D;52764;51.036;5.852;2023-10-19T03:42:05;16.87;82.27
65995;HTU21D;52764;51.036;5.852;2023-10-19T03:44:33;16.88;82.14
65995;HTU21D;52764;51.036;5.852;2023-10-19T03:47:20;16.85;81.94
65995;HTU21D;52764;51.036;5.852;2023-10-19T03:49:51;16.77;82.00
65995;HTU21D;52764;51.036;5.852;2023-10-19T03:52:17;16.70;82.06
65995;HTU21D;52764;51.036;5.852;2023-10-19T03:54:42;16.65;82.29
65995;HTU21D;52764;51.036;5.852;2023-10-19T03:57:12;16.59;82.46
65995;HTU21D;52764;51.036;5.852;2023-10-19T03:59:41;16.55;82.60
65995;HTU21D;52764;51.036;5.852;2023-10-19T04:02:08;16.48;82.75
65995;HTU21D;52764;51.036;5.852;2023-10-19T04:04:43;16.43;82.87
65995;HTU21D;52764;51.036;5.852;2023-10-19T04:07:10;16.37;83.04
65995;HTU21D;52764;51.036;5.852;2023-10-19T04:10:01;16.34;83.23
65995;HTU21D;52764;51.036;5.852;2023-10-19T04:12:30;-8.39;83.38
65995;HTU21D;52764;51.036;5.852;2023-10-19T04:14:57;16.27;83.46
65995;HTU21D;52764;51.036;5.852;2023-10-19T04:17:23;16.25;83.50
65995;HTU21D;52764;51.036;5.852;2023-10-19T04:19:50;16.22;83.70
65995;HTU21D;52764;51.036;5.852;2023-10-19T04:22:20;16.25;83.78
65995;HTU21D;52764;51.036;5.852;2023-10-19T04:24:52;16.26;83.88
65995;HTU21D;52764;51.036;5.852;2023-10-19T04:27:18;16.27;83.89
65995;HTU21D;52764;51.036;5.852;2023-10-19T04:29:49;16.29;83.91
65995;HTU21D;52764;51.036;5.852;2023-10-19T04:32:16;16.32;83.91
65995;HTU21D;52764;51.036;5.852;2023-10-19T04:34:49;16.33;83.89
65995;HTU21D;52764;51.036;5.852;2023-10-19T04:37:14;16.36;83.89
65995;HTU21D;52764;51.036;5.852;2023-10-19T04:39:44;16.40;83.79
65995;HTU21D;52764;51.036;5.852;2023-10-19T04:42:10;16.41;83.83
65995;HTU21D;52764;51.036;5.852;2023-10-19T04:44:35;16.42;83.73
65995;HTU21D;52764;51.036;5.852;2023-10-19T04:47:01;16.43;83.65
65995;HTU21D;52764;51.036;5.852;2023-10-19T04:49:27;16.43;83.69
65995;HTU21D;52764;51.036;5.852;2023-10-19T04:51:54;16.42;83.62
65995;HTU21D;52764;51.036;5.852;2023-10-19T04:54:19;16.42;83.77
65995;HTU21D;52764;51.036;5.852;2023-10-19T04:56:45;16.41;83.77
65995;HTU21D;52764;51.036;5.852;2023-10-19T04:59:11;16.42;83.81
65995;HTU21D;52764;51.036;5.852;2023-10-19T05:01:37;16.43;83.78
65995;HTU21D;52764;51.036;5.852;2023-10-19T05:04:03;16.47;83.80
65995;HTU21D;52764;51.036;5.852;2023-10-19T05:06:28;16.48;83.78
65995;HTU21D;52764;51.036;5.852;2023-10-19T05:08:54;16.45;83.93
65995;HTU21D;52764;51.036;5.852;2023-10-19T05:11:20;16.45;83.97
65995;HTU21D;52764;51.036;5.852;2023-10-19T05:13:46;16.44;84.11
65995;HTU21D;52764;51.036;5.852;2023-10-19T05:16:12;16.43;84.16
65995;HTU21D;52764;51.036;5.852;2023-10-19T05:18:37;16.44;84.15
65995;HTU21D;52764;51.036;5.852;2023-10-19T05:21:04;16.47;84.10
65995;HTU21D;52764;51.036;5.852;2023-10-19T05:23:30;16.47;84.11
65995;HTU21D;52764;51.036;5.852;2023-10-19T05:26:02;16.47;83.92
65995;HTU21D;52764;51.036;5.852;2023-10-19T05:28:28;16.47;83.87
65995;HTU21D;52764;51.036;5.852;2023-10-19T05:30:54;16.47;83.87
65995;HTU21D;52764;51.036;5.852;2023-10-19T05:33:20;16.48;83.90
65995;HTU21D;52764;51.036;5.852;2023-10-19T05:35:50;16.49;83.78
65995;HTU21D;52764;51.036;5.852;2023-10-19T05:38:17;16.48;83.82
65995;HTU21D;52764;51.036;5.852;2023-10-19T05:40:44;16.50;83.78
65995;HTU21D;52764;51.036;5.852;2023-10-19T05:43:11;16.50;83.78
65995;HTU21D;52764;51.036;5.852;2023-10-19T05:45:37;16.54;83.71
65995;HTU21D;52764;51.036;5.852;2023-10-19T05:48:04;16.57;83.70
65995;HTU21D;52764;51.036;5.852;2023-10-19T05:50:35;16.60;83.58
65995;HTU21D;52764;51.036;5.852;2023-10-19T05:53:04;16.63;83.55
65995;HTU21D;52764;51.036;5.852;2023-10-19T05:55:30;16.65;83.49
65995;HTU21D;52764;51.036;5.852;2023-10-19T05:57:57;16.67;83.47
65995;HTU21D;52764;51.036;5.852;2023-10-19T06:00:23;17.11;83.37
65995;HTU21D;52764;51.036;5.852;2023-10-19T06:02:51;16.73;83.31
65995;HTU21D;52764;51.036;5.852;2023-10-19T06:05:18;16.74;83.26
65995;HTU21D;52764;51.036;5.852;2023-10-19T06:07:48;16.75;83.26
65995;HTU21D;52764;51.036;5.852;2023-10-19T06:10:17;16.76;83.29
65995;HTU21D;52764;51.036;5.852;2023-10-19T06:12:51;16.79;83.29
65995;HTU21D;52764;51.036;5.852;2023-10-19T06:15:19;16.81;83.29
65995;HTU21D;52764;51.036;5.852;2023-10-19T06:17:47;16.85;83.16
65995;HTU21D;52764;51.036;5.852;2023-10-19T06:20:14;16.86;83.15
65995;HTU21D;52764;51.036;5.852;2023-10-19T06:22:59;16.85;83.21
65995;HTU21D;52764;51.036;5.852;2023-10-19T06:25:33;16.87;83.16
65995;HTU21D;52764;51.036;5.852;2023-10-19T06:28:01;16.90;82.40
65995;HTU21D;52764;51.036;5.852;2023-10-19T06:30:27;16.92;83.22
65995;HTU21D;52764;51.036;5.852;2023-10-19T06:32:55;16.90;83.10
65995;HTU21D;52764;51.036;5.852;2023-10-19T06:35:22;16.87;83.11
65995;HTU21D;52764;51.036;5.852;2023-10-19T06:37:49;16.84;83.26
65995;HTU21D;52764;51.036;5.852;2023-10-19T06:40:16;16.79;83.34
65995;HTU21D;52764;51.036;5.852;2023-10-19T06:42:43;16.73;83.48
65995;HTU21D;52764;51.036;5.852;2023-10-19T06:45:11;16.70;79.56
65995;HTU21D;52764;51.036;5.852;2023-10-19T06:47:44;16.70;83.82
65995;HTU21D;52764;51.036;5.852;2023-10-19T06:50:12;16.71;83.91
65995;HTU21D;52764;51.036;5.852;2023-10-19T06:52:39;16.71;83.84
65995;HTU21D;52764;51.036;5.852;2023-10-19T06:55:06;17.16;83.93
65995;HTU21D;52764;51.036;5.852;2023-10-19T06:57:47;16.79;84.04
65995;HTU21D;52764;51.036;5.852;2023-10-19T07:00:15;16.89;83.87
65995;HTU21D;52764;51.036;5.852;2023-10-19T07:02:44;17.02;83.44
65995;HTU21D;52764;51.036;5.852;2023-10-19T07:05:12;17.11;83.06
65995;HTU21D;52764;51.036;5.852;2023-10-19T07:07:41;17.18;82.82
65995;HTU21D;52764;51.036;5.852;2023-10-19T07:10:08;17.31;82.32
65995;HTU21D;52764;51.036;5.852;2023-10-19T07:12:36;17.31;82.30
65995;HTU21D;52764;51.036;5.852;2023-10-19T07:15:06;17.36;82.16
65995;HTU21D;52764;51.036;5.852;2023-10-19T07:17:40;17.46;82.07
65995;HTU21D;52764;51.036;5.852;2023-10-19T07:20:08;17.54;81.76
65995;HTU21D;52764;51.036;5.852;2023-10-19T07:22:56;17.64;81.46
65995;HTU21D;52764;51.036;5.852;2023-10-19T07:25:23;17.68;81.29
65995;HTU21D;52764;51.036;5.852;2023-10-19T07:27:51;17.70;80.88
65995;HTU21D;52764;51.036;5.852;2023-10-19T07:30:21;17.72;80.80
65995;HTU21D;52764;51.036;5.852;2023-10-19T07:32:48;17.77;80.88
65995;HTU21D;52764;51.036;5.852;2023-10-19T07:35:18;17.81;80.64
65995;HTU21D;52764;51.036;5.852;2023-10-19T07:37:45;17.83;80.24
65995;HTU21D;52764;51.036;5.852;2023-10-19T07:40:11;17.84;80.08
65995;HTU21D;52764;51.036;5.852;2023-10-19T07:42:40;17.89;79.90
65995;HTU21D;52764;51.036;5.852;2023-10-19T07:45:06;17.90;79.56
65995;HTU21D;52764;51.036;5.852;2023-10-19T07:47:38;17.91;79.31
65995;HTU21D;52764;51.036;5.852;2023-10-19T07:50:07;17.85;79.24
65995;HTU21D;52764;51.036;5.852;2023-10-19T07:52:38;17.81;79.38
65995;HTU21D;52764;51.036;5.852;2023-10-19T07:55:05;17.81;79.57
65995;HTU21D;52764;51.036;5.852;2023-10-19T07:57:32;17.83;79.63
65995;HTU21D;52764;51.036;5.852;2023-10-19T07:59:59;17.93;79.85
65995;HTU21D;52764;51.036;5.852;2023-10-19T08:02:25;18.08;79.80
65995;HTU21D;52764;51.036;5.852;2023-10-19T08:04:52;18.27;79.40
65995;HTU21D;52764;51.036;5.852;2023-10-19T08:07:17;18.55;78.76
65995;HTU21D;52764;51.036;5.852;2023-10-19T08:09:44;18.78;78.04
65995;HTU21D;52764;51.036;5.852;2023-10-19T08:12:10;18.93;77.08
65995;HTU21D;52764;51.036;5.852;2023-10-19T08:14:36;18.98;76.68
65995;HTU21D;52764;51.036;5.852;2023-10-19T08:17:02;19.01;76.36
65995;HTU21D;52764;51.036;5.852;2023-10-19T08:19:29;19.00;76.02
65995;HTU21D;52764;51.036;5.852;2023-10-19T08:21:56;18.96;75.83
65995;HTU21D;52764;51.036;5.852;2023-10-19T08:24:23;18.99;75.79
65995;HTU21D;52764;51.036;5.852;2023-10-19T08:26:49;19.06;75.82
65995;HTU21D;52764;51.036;5.852;2023-10-19T08:29:16;19.17;75.43
65995;HTU21D;52764;51.036;5.852;2023-10-19T08:31:44;19.12;75.44
65995;HTU21D;52764;51.036;5.852;2023-10-19T08:34:13;19.13;75.13
65995;HTU21D;52764;51.036;5.852;2023-10-19T08:36:40;19.01;74.96
65995;HTU21D;52764;51.036;5.852;2023-10-19T08:39:10;18.95;75.18
65995;HTU21D;52764;51.036;5.852;2023-10-19T08:41:39;18.97;75.59
65995;HTU21D;52764;51.036;5.852;2023-10-19T08:44:07;18.98;75.80
65995;HTU21D;52764;51.036;5.852;2023-10-19T08:46:40;18.97;75.67
65995;HTU21D;52764;51.036;5.852;2023-10-19T08:49:10;18.96;75.58
65995;HTU21D;52764;51.036;5.852;2023-10-19T08:51:38;18.94;75.57
65995;HTU21D;52764;51.036;5.852;2023-10-19T08:54:07;18.92;75.57
65995;HTU21D;52764;51.036;5.852;2023-10-19T08:56:37;18.96;75.67
65995;HTU21D;52764;51.036;5.852;2023-10-19T08:59:02;19.07;75.92
65995;HTU21D;52764;51.036;5.852;2023-10-19T09:01:28;19.20;63.19
65995;HTU21D;52764;51.036;5.852;2023-10-19T09:03:58;19.29;75.28
65995;HTU21D;52764;51.036;5.852;2023-10-19T09:06:25;19.36;74.60
65995;HTU21D;52764;51.036;5.852;2023-10-19T09:08:51;19.44;74.29
65995;HTU21D;52764;51.036;5.852;2023-10-19T09:11:16;19.55;74.12
65995;HTU21D;52764;51.036;5.852;2023-10-19T09:13:50;19.57;73.64
65995;HTU21D;52764;51.036;5.852;2023-10-19T09:16:17;19.65;73.49
65995;HTU21D;52764;51.036;5.852;2023-10-19T09:18:43;19.67;73.00
65995;HTU21D;52764;51.036;5.852;2023-10-19T09:21:10;19.65;72.74
65995;HTU21D;52764;51.036;5.852;2023-10-19T09:23:53;19.63;72.54
65995;HTU21D;52764;51.036;5.852;2023-10-19T09:26:21;19.63;72.29
65995;HTU21D;52764;51.036;5.852;2023-10-19T09:28:48;19.65;72.06
65995;HTU21D;52764;51.036;5.852;2023-10-19T09:31:15;19.67;72.14
65995;HTU21D;52764;51.036;5.852;2023-10-19T09:33:45;19.72;71.87
65995;HTU21D;52764;51.036;5.852;2023-10-19T09:36:13;19.80;71.73
65995;HTU21D;52764;51.036;5.852;2023-10-19T09:38:50;19.85;71.32
65995;HTU21D;52764;51.036;5.852;2023-10-19T09:41:21;19.88;71.39
65995;HTU21D;52764;51.036;5.852;2023-10-19T09:43:49;19.92;71.55
65995;HTU21D;52764;51.036;5.852;2023-10-19T09:46:25;19.90;71.22
65995;HTU21D;52764;51.036;5.852;2023-10-19T09:49:10;19.89;71.03
65995;HTU21D;52764;51.036;5.852;2023-10-19T09:55:58;20.01;71.00
65995;HTU21D;52764;51.036;5.852;2023-10-19T09:58:33;20.05;70.69
65995;HTU21D;52764;51.036;5.852;2023-10-19T10:01:00;20.12;70.68
65995;HTU21D;52764;51.036;5.852;2023-10-19T10:03:43;20.19;70.58
65995;HTU21D;52764;51.036;5.852;2023-10-19T10:06:14;20.29;70.31
65995;HTU21D;52764;51.036;5.852;2023-10-19T10:08:43;20.40;70.06
65995;HTU21D;52764;51.036;5.852;2023-10-19T10:11:23;20.53;69.92
65995;HTU21D;52764;51.036;5.852;2023-10-19T10:13:50;20.65;69.61
65995;HTU21D;52764;51.036;5.852;2023-10-19T10:16:22;20.72;69.18
65995;HTU21D;52764;51.036;5.852;2023-10-19T10:18:50;20.78;68.77
65995;HTU21D;52764;51.036;5.852;2023-10-19T10:21:22;20.83;68.71
65995;HTU21D;52764;51.036;5.852;2023-10-19T10:26:22;20.87;68.22
65995;HTU21D;52764;51.036;5.852;2023-10-19T10:31:46;20.83;68.99
65995;HTU21D;52764;51.036;5.852;2023-10-19T10:37:07;20.90;68.84
65995;HTU21D;52764;51.036;5.852;2023-10-19T10:39:35;20.96;68.60
65995;HTU21D;52764;51.036;5.852;2023-10-19T10:42:07;21.01;68.27
65995;HTU21D;52764;51.036;5.852;2023-10-19T10:44:40;21.01;67.97
65995;HTU21D;52764;51.036;5.852;2023-10-19T10:47:24;20.98;67.92
65995;HTU21D;52764;51.036;5.852;2023-10-19T10:49:50;21.01;68.25
65995;HTU21D;52764;51.036;5.852;2023-10-19T10:52:24;21.04;67.84
65995;HTU21D;52764;51.036;5.852;2023-10-19T10:54:50;21.16;68.15
65995;HTU21D;52764;51.036;5.852;2023-10-19T10:57:16;21.18;67.75
65995;HTU21D;52764;51.036;5.852;2023-10-19T10:59:41;21.14;67.25
65995;HTU21D;52764;51.036;5.852;2023-10-19T11:02:20;21.06;67.59
65995;HTU21D;52764;51.036;5.852;2023-10-19T11:04:47;21.09;67.40
65995;HTU21D;52764;51.036;5.852;2023-10-19T11:07:20;21.09;67.60
65995;HTU21D;52764;51.036;5.852;2023-10-19T11:09:47;20.98;67.30
65995;HTU21D;52764;51.036;5.852;2023-10-19T11:12:14;20.96;67.57
65995;HTU21D;52764;51.036;5.852;2023-10-19T11:14:53;20.93;67.57
65995;HTU21D;52764;51.036;5.852;2023-10-19T11:17:19;20.93;67.83
65995;HTU21D;52764;51.036;5.852;2023-10-19T11:19:45;20.94;67.53
65995;HTU21D;52764;51.036;5.852;2023-10-19T11:22:10;20.99;63.10
65995;HTU21D;52764;51.036;5.852;2023-10-19T11:24:37;20.98;67.65
65995;HTU21D;52764;51.036;5.852;2023-10-19T11:27:06;20.95;67.65
65995;HTU21D;52764;51.036;5.852;2023-10-19T11:29:33;20.94;67.46
65995;HTU21D;52764;51.036;5.852;2023-10-19T11:32:00;20.92;67.56
65995;HTU21D;52764;51.036;5.852;2023-10-19T11:34:26;20.93;68.11
65995;HTU21D;52764;51.036;5.852;2023-10-19T11:36:56;20.96;68.44
65995;HTU21D;52764;51.036;5.852;2023-10-19T11:39:23;20.93;68.69
65995;HTU21D;52764;51.036;5.852;2023-10-19T11:41:51;20.95;68.49
65995;HTU21D;52764;51.036;5.852;2023-10-19T11:44:18;20.91;68.61
65995;HTU21D;52764;51.036;5.852;2023-10-19T11:46:45;20.91;68.78
65995;HTU21D;52764;51.036;5.852;2023-10-19T11:49:11;20.94;68.71
65995;HTU21D;52764;51.036;5.852;2023-10-19T11:51:37;20.91;68.95
65995;HTU21D;52764;51.036;5.852;2023-10-19T11:54:05;20.92;81.21
65995;HTU21D;52764;51.036;5.852;2023-10-19T11:56:32;20.98;68.65
65995;HTU21D;52764;51.036;5.852;2023-10-19T11:58:57;21.00;68.88
65995;HTU21D;52764;51.036;5.852;2023-10-19T12:01:23;21.01;68.49
65995;HTU21D;52764;51.036;5.852;2023-10-19T12:03:50;21.02;68.24
65995;HTU21D;52764;51.036;5.852;2023-10-19T12:06:16;20.99;68.26
65995;HTU21D;52764;51.036;5.852;2023-10-19T12:08:46;20.91;68.45
65995;HTU21D;52764;51.036;5.852;2023-10-19T12:11:12;20.93;68.71
65995;HTU21D;52764;51.036;5.852;2023-10-19T12:13:44;20.96;68.95
65995;HTU21D;52764;51.036;5.852;2023-10-19T12:16:11;21.03;69.08
65995;HTU21D;52764;51.036;5.852;2023-10-19T12:18:39;1.18;68.61
65995;HTU21D;52764;51.036;5.852;2023-10-19T12:21:04;21.16;68.25
65995;HTU21D;52764;51.036;5.852;2023-10-19T12:23:33;21.19;67.26
65995;HTU21D;52764;51.036;5.852;2023-10-19T12:25:59;21.18;67.81
65995;HTU21D;52764;51.036;5.852;2023-10-19T12:28:33;21.15;67.88
65995;HTU21D;52764;51.036;5.852;2023-10-19T12:30:59;21.15;67.84
65995;HTU21D;52764;51.036;5.852;2023-10-19T12:33:26;21.20;67.59
65995;HTU21D;52764;51.036;5.852;2023-10-19T12:35:52;21.24;67.81
65995;HTU21D;52764;51.036;5.852;2023-10-19T12:38:19;21.22;68.01
65995;HTU21D;52764;51.036;5.852;2023-10-19T12:40:49;21.16;68.39
65995;HTU21D;52764;51.036;5.852;2023-10-19T12:43:18;21.10;68.66
65995;HTU21D;52764;51.036;5.852;2023-10-19T12:45:48;21.10;68.85
65995;HTU21D;52764;51.036;5.852;2023-10-19T12:48:21;21.10;68.70
65995;HTU21D;52764;51.036;5.852;2023-10-19T12:50:47;21.16;68.49
65995;HTU21D;52764;51.036;5.852;2023-10-19T12:53:13;21.13;68.42
65995;HTU21D;52764;51.036;5.852;2023-10-19T12:55:40;21.11;69.35
65995;HTU21D;52764;51.036;5.852;2023-10-19T12:58:06;21.10;70.00
65995;HTU21D;52764;51.036;5.852;2023-10-19T13:00:35;21.06;70.33
65995;HTU21D;52764;51.036;5.852;2023-10-19T13:03:04;21.04;70.81
65995;HTU21D;52764;51.036;5.852;2023-10-19T13:05:35;20.95;71.07
65995;HTU21D;52764;51.036;5.852;2023-10-19T13:08:02;20.84;72.03
65995;HTU21D;52764;51.036;5.852;2023-10-19T13:10:33;20.64;71.99
65995;HTU21D;52764;51.036;5.852;2023-10-19T13:13:04;20.40;73.05
65995;HTU21D;52764;51.036;5.852;2023-10-19T13:15:35;20.10;73.76
65995;HTU21D;52764;51.036;5.852;2023-10-19T13:18:01;19.94;74.25
65995;HTU21D;52764;51.036;5.852;2023-10-19T13:20:28;19.77;74.35
65995;HTU21D;52764;51.036;5.852;2023-10-19T13:23:00;19.72;75.21
65995;HTU21D;52764;51.036;5.852;2023-10-19T13:25:32;19.73;75.80
65995;HTU21D;52764;51.036;5.852;2023-10-19T13:28:11;19.80;76.60
65995;HTU21D;52764;51.036;5.852;2023-10-19T13:30:38;19.83;76.60
65995;HTU21D;52764;51.036;5.852;2023-10-19T13:33:05;19.73;77.06
65995;HTU21D;52764;51.036;5.852;2023-10-19T13:35:32;19.76;77.27
65995;HTU21D;52764;51.036;5.852;2023-10-19T13:37:59;19.76;77.28
65995;HTU21D;52764;51.036;5.852;2023-10-19T13:40:27;19.76;77.46
65995;HTU21D;52764;51.036;5.852;2023-10-19T13:42:59;19.67;77.57
65995;HTU21D;52764;51.036;5.852;2023-10-19T13:45:25;19.44;78.09
65995;HTU21D;52764;51.036;5.852;2023-10-19T13:47:51;19.41;78.37
65995;HTU21D;52764;51.036;5.852;2023-10-19T13:50:23;19.06;79.17
65995;HTU21D;52764;51.036;5.852;2023-10-19T13:52:50;18.95;79.60
65995;HTU21D;52764;51.036;5.852;2023-10-19T13:55:17;18.83;79.91
65995;HTU21D;52764;51.036;5.852;2023-10-19T13:57:47;18.59;80.56
65995;HTU21D;52764;51.036;5.852;2023-10-19T14:00:14;18.50;81.10
65995;HTU21D;52764;51.036;5.852;2023-10-19T14:02:53;18.43;81.75
65995;HTU21D;52764;51.036;5.852;2023-10-19T14:05:19;18.37;81.88
65995;HTU21D;52764;51.036;5.852;2023-10-19T14:07:46;18.36;82.33
65995;HTU21D;52764;51.036;5.852;2023-10-19T14:10:13;18.38;82.36
65995;HTU21D;52764;51.036;5.852;2023-10-19T14:12:43;18.39;82.39
65995;HTU21D;52764;51.036;5.852;2023-10-19T14:17:44;18.33;82.69
65995;HTU21D;52764;51.036;5.852;2023-10-19T14:20:14;18.35;82.68
65995;HTU21D;52764;51.036;5.852;2023-10-19T14:22:41;18.26;83.01
65995;HTU21D;52764;51.036;5.852;2023-10-19T14:25:09;18.22;83.17
65995;HTU21D;52764;51.036;5.852;2023-10-19T14:27:42;18.29;83.19
65995;HTU21D;52764;51.036;5.852;2023-10-19T14:30:09;18.39;83.14
65995;HTU21D;52764;51.036;5.852;2023-10-19T14:32:43;18.39;83.16
65995;HTU21D;52764;51.036;5.852;2023-10-19T14:35:11;18.51;82.93
65995;HTU21D;52764;51.036;5.852;2023-10-19T14:37:45;18.64;82.51
65995;HTU21D;52764;51.036;5.852;2023-10-19T14:40:23;18.82;81.94
65995;HTU21D;52764;51.036;5.852;2023-10-19T14:42:51;18.89;81.60
65995;HTU21D;52764;51.036;5.852;2023-10-19T14:45:23;19.06;81.47
65995;HTU21D;52764;51.036;5.852;2023-10-19T14:47:55;19.22;81.11
65995;HTU21D;52764;51.036;5.852;2023-10-19T14:50:22;19.30;80.56
65995;HTU21D;52764;51.036;5.852;2023-10-19T14:52:50;19.30;80.28
65995;HTU21D;52764;51.036;5.852;2023-10-19T14:55:17;19.31;80.25
65995;HTU21D;52764;51.036;5.852;2023-10-19T14:57:45;-2.30;79.88
65995;HTU21D;52764;51.036;5.852;2023-10-19T15:00:16;19.29;79.58
65995;HTU21D;52764;51.036;5.852;2023-10-19T15:02:49;19.17;79.59
65995;HTU21D;52764;51.036;5.852;2023-10-19T15:05:17;19.06;79.96
65995;HTU21D;52764;51.036;5.852;2023-10-19T15:07:44;19.01;80.22
65995;HTU21D;52764;51.036;5.852;2023-10-19T15:10:11;19.13;80.11
65995;HTU21D;52764;51.036;5.852;2023-10-19T15:12:41;19.14;79.69
65995;HTU21D;52764;51.036;5.852;2023-10-19T15:15:08;19.13;79.59
65995;HTU21D;52764;51.036;5.852;2023-10-19T15:17:37;19.09;79.53
65995;HTU21D;52764;51.036;5.852;2023-10-19T15:20:08;19.11;79.72
65995;HTU21D;52764;51.036;5.852;2023-10-19T15:22:38;19.05;79.94
65995;HTU21D;52764;51.036;5.852;2023-10-19T15:25:05;19.13;79.98
65995;HTU21D;52764;51.036;5.852;2023-10-19T15:27:38;19.22;79.94
65995;HTU21D;52764;51.036;5.852;2023-10-19T15:30:06;19.21;79.82
65995;HTU21D;52764;51.036;5.852;2023-10-19T15:32:32;19.05;79.98
65995;HTU21D;52764;51.036;5.852;2023-10-19T15:34:58;19.07;80.20
65995;HTU21D;52764;51.036;5.852;2023-10-19T15:37:24;18.96;80.54
65995;HTU21D;52764;51.036;5.852;2023-10-19T15:39:51;18.86;80.78
65995;HTU21D;52764;51.036;5.852;2023-10-19T15:42:17;18.89;80.49
65995;HTU21D;52764;51.036;5.852;2023-10-19T15:44:44;18.89;80.47
65995;HTU21D;52764;51.036;5.852;2023-10-19T15:47:11;18.83;80.65